sensor_id;sensor_type;location;lat;lon;timestamp;pressure;altitude;pressure_sealevel;temperature;humidity
73267;BME280;61495;53.400;7.608;2023-05-08T00:01:13;102279.81;;;11.28;74.81
73267;BME280;61495;53.400;7.608;2023-05-08T00:03:39;102275.63;;;11.26;75.22
73267;BME280;61495;53.400;7.608;2023-05-08T00:06:05;102282.31;;;11.30;75.41
73267;BME280;61495;53.400;7.608;2023-05-08T00:08:31;102282.31;;;11.30;74.97
73267;BME280;61495;53.400;7.608;2023-05-08T00:10:56;102272.78;;;11.27;75.12
73267;BME280;61495;53.400;7.608;2023-05-08T00:13:22;102267.56;;;11.26;74.98
73267;BME280;61495;53.400;7.608;2023-05-08T00:15:48;102265.72;;;11.26;75.00
73267;BME280;61495;53.400;7.608;2023-05-08T00:18:13;102259.88;;;11.23;74.63
73267;BME280;61495;53.400;7.608;2023-05-08T00:20:39;102270.09;;;11.27;74.75
73267;BME280;61495;53.400;7.608;2023-05-08T00:23:05;102270.44;;;11.24;74.64
73267;BME280;61495;53.400;7.608;2023-05-08T00:25:31;102270.94;;;11.20;74.95
73267;BME280;61495;53.400;7.608;2023-05-08T00:27:57;102258.06;;;11.15;75.26
73267;BME280;61495;53.400;7.608;2023-05-08T00:30:22;102265.13;;;11.16;75.12
73267;BME280;61495;53.400;7.608;2023-05-08T00:32:48;102264.28;;;11.15;75.10
73267;BME280;61495;53.400;7.608;2023-05-08T00:35:13;102247.41;;;11.07;75.42
73267;BME280;61495;53.400;7.608;2023-05-08T00:37:39;102259.44;;;11.11;75.65
73267;BME280;61495;53.400;7.608;2023-05-08T00:40:09;102262.81;;;11.05;75.24
73267;BME280;61495;53.400;7.608;2023-05-08T00:42:35;102262.81;;;11.05;75.66
73267;BME280;61495;53.400;7.608;2023-05-08T00:45:01;102262.16;;;11.03;75.48
73267;BME280;61495;53.400;7.608;2023-05-08T00:47:28;102261.66;;;10.99;75.70
73267;BME280;61495;53.400;7.608;2023-05-08T00:49:53;102257.78;;;11.02;75.83
73267;BME280;61495;53.400;7.608;2023-05-08T00:52:19;102246.63;;;10.90;75.89
73267;BME280;61495;53.400;7.608;2023-05-08T00:54:45;102263.50;;;10.99;75.97
73267;BME280;61495;53.400;7.608;2023-05-08T00:57:13;102267.03;;;10.99;75.92
73267;BME280;61495;53.400;7.608;2023-05-08T00:59:39;102255.16;;;10.94;76.12
73267;BME280;61495;53.400;7.608;2023-05-08T01:02:06;102247.31;;;10.92;75.80
73267;BME280;61495;53.400;7.608;2023-05-08T01:04:33;102246.13;;;10.87;75.89
73267;BME280;61495;53.400;7.608;2023-05-08T01:07:00;102255.50;;;10.91;76.09
73267;BME280;61495;53.400;7.608;2023-05-08T01:09:26;102246.47;;;10.92;75.88
73267;BME280;61495;53.400;7.608;2023-05-08T01:14:52;102261.22;;;10.88;76.28
73267;BME280;61495;53.400;7.608;2023-05-08T01:31:24;102273.97;;;10.86;76.30
73267;BME280;61495;53.400;7.608;2023-05-08T01:34:05;102267.28;;;10.82;76.81
73267;BME280;61495;53.400;7.608;2023-05-08T01:36:40;102278.34;;;10.79;76.17
73267;BME280;61495;53.400;7.608;2023-05-08T01:39:22;102279.38;;;10.78;76.31
73267;BME280;61495;53.400;7.608;2023-05-08T01:42:04;102272.66;;;10.74;76.90
73267;BME280;61495;53.400;7.608;2023-05-08T01:44:42;102279.88;;;10.73;76.80
73267;BME280;61495;53.400;7.608;2023-05-08T01:47:10;102284.03;;;10.76;76.84
73267;BME280;61495;53.400;7.608;2023-05-08T01:49:43;102266.66;;;10.72;77.14
73267;BME280;61495;53.400;7.608;2023-05-08T01:52:12;102276.69;;;10.70;76.71
73267;BME280;61495;53.400;7.608;2023-05-08T01:54:47;102272.34;;;10.69;77.15
73267;BME280;61495;53.400;7.608;2023-05-08T01:57:15;102253.59;;;10.60;76.87
73267;BME280;61495;53.400;7.608;2023-05-08T01:59:43;102268.16;;;10.66;76.69
73267;BME280;61495;53.400;7.608;2023-05-08T02:02:10;102262.78;;;10.66;77.21
73267;BME280;61495;53.400;7.608;2023-05-08T02:04:42;102235.41;;;10.48;77.81
73267;BME280;61495;53.400;7.608;2023-05-08T02:07:08;102257.66;;;10.56;77.33
73267;BME280;61495;53.400;7.608;2023-05-08T02:09:33;102244.78;;;10.44;78.09
73267;BME280;61495;53.400;7.608;2023-05-08T02:12:00;102250.94;;;10.52;76.78
73267;BME280;61495;53.400;7.608;2023-05-08T02:14:28;102252.97;;;10.50;77.31
73267;BME280;61495;53.400;7.608;2023-05-08T02:16:55;102256.31;;;10.52;77.54
73267;BME280;61495;53.400;7.608;2023-05-08T02:19:23;102258.34;;;10.50;77.44
73267;BME280;61495;53.400;7.608;2023-05-08T02:21:50;102254.31;;;10.46;76.96
73267;BME280;61495;53.400;7.608;2023-05-08T02:24:17;102256.00;;;10.39;78.14
73267;BME280;61495;53.400;7.608;2023-05-08T02:26:45;102260.00;;;10.43;77.51
73267;BME280;61495;53.400;7.608;2023-05-08T02:29:12;102243.31;;;10.33;77.98
73267;BME280;61495;53.400;7.608;2023-05-08T02:31:39;102246.97;;;10.32;77.66
73267;BME280;61495;53.400;7.608;2023-05-08T02:34:07;102250.31;;;10.34;77.76
73267;BME280;61495;53.400;7.608;2023-05-08T02:36:34;102246.31;;;10.30;77.25
73267;BME280;61495;53.400;7.608;2023-05-08T02:39:01;102232.44;;;10.27;77.93
73267;BME280;61495;53.400;7.608;2023-05-08T02:41:29;102249.00;;;10.22;78.26
73267;BME280;61495;53.400;7.608;2023-05-08T02:43:56;102243.66;;;10.22;78.78
73267;BME280;61495;53.400;7.608;2023-05-08T02:46:26;102242.66;;;10.15;78.44
73267;BME280;61495;53.400;7.608;2023-05-08T02:49:06;102241.81;;;10.15;78.34
73267;BME280;61495;53.400;7.608;2023-05-08T02:52:04;102234.25;;;10.10;78.69
73267;BME280;61495;53.400;7.608;2023-05-08T02:54:37;102232.59;;;10.09;78.44
73267;BME280;61495;53.400;7.608;2023-05-08T02:57:20;102232.13;;;9.97;79.08
73267;BME280;61495;53.400;7.608;2023-05-08T03:00:02;102240.94;;;9.98;78.67
73267;BME280;61495;53.400;7.608;2023-05-08T03:02:34;102238.94;;;9.92;79.42
73267;BME280;61495;53.400;7.608;2023-05-08T03:05:10;102233.28;;;9.87;79.31
73267;BME280;61495;53.400;7.608;2023-05-08T03:07:39;102234.78;;;9.89;78.83
73267;BME280;61495;53.400;7.608;2023-05-08T03:10:10;102231.44;;;9.79;79.21
73267;BME280;61495;53.400;7.608;2023-05-08T03:12:39;102228.59;;;9.81;79.41
73267;BME280;61495;53.400;7.608;2023-05-08T03:15:13;102226.94;;;9.80;79.20
73267;BME280;61495;53.400;7.608;2023-05-08T03:17:40;102234.28;;;9.78;79.68
73267;BME280;61495;53.400;7.608;2023-05-08T03:20:11;102224.09;;;9.73;78.95
73267;BME280;61495;53.400;7.608;2023-05-08T03:22:38;102235.97;;;9.79;79.16
73267;BME280;61495;53.400;7.608;2023-05-08T03:25:07;102223.91;;;9.75;78.77
73267;BME280;61495;53.400;7.608;2023-05-08T03:27:34;102229.91;;;9.69;79.20
73267;BME280;61495;53.400;7.608;2023-05-08T03:30:03;102234.44;;;9.68;78.88
73267;BME280;61495;53.400;7.608;2023-05-08T03:32:30;102220.22;;;9.60;78.97
73267;BME280;61495;53.400;7.608;2023-05-08T03:35:05;102245.31;;;9.59;79.75
73267;BME280;61495;53.400;7.608;2023-05-08T03:37:31;102243.63;;;9.58;79.11
73267;BME280;61495;53.400;7.608;2023-05-08T03:39:56;102246.31;;;9.58;79.02
73267;BME280;61495;53.400;7.608;2023-05-08T03:42:22;102242.78;;;9.57;79.49
73267;BME280;61495;53.400;7.608;2023-05-08T03:44:52;102258.00;;;9.57;79.93
73267;BME280;61495;53.400;7.608;2023-05-08T03:47:19;102255.50;;;9.55;79.29
73267;BME280;61495;53.400;7.608;2023-05-08T03:49:46;102247.31;;;9.48;79.50
73267;BME280;61495;53.400;7.608;2023-05-08T03:52:12;102257.66;;;9.52;79.19
73267;BME280;61495;53.400;7.608;2023-05-08T03:54:38;102254.34;;;9.49;79.66
73267;BME280;61495;53.400;7.608;2023-05-08T03:57:03;102251.81;;;9.48;79.82
73267;BME280;61495;53.400;7.608;2023-05-08T03:59:41;102256.81;;;9.43;80.77
73267;BME280;61495;53.400;7.608;2023-05-08T04:02:18;102257.66;;;9.43;80.11
73267;BME280;61495;53.400;7.608;2023-05-08T04:04:46;102259.31;;;9.44;80.08
73267;BME280;61495;53.400;7.608;2023-05-08T04:07:36;102250.13;;;9.39;79.73
73267;BME280;61495;53.400;7.608;2023-05-08T04:10:06;102258.00;;;9.40;80.03
73267;BME280;61495;53.400;7.608;2023-05-08T04:12:53;102242.94;;;9.31;80.13
73267;BME280;61495;53.400;7.608;2023-05-08T04:15:24;102252.59;;;9.32;79.51
73267;BME280;61495;53.400;7.608;2023-05-08T04:17:55;102256.63;;;9.36;79.89
73267;BME280;61495;53.400;7.608;2023-05-08T04:20:23;102258.66;;;9.34;79.87
73267;BME280;61495;53.400;7.608;2023-05-08T04:22:52;102267.66;;;9.33;79.61
73267;BME280;61495;53.400;7.608;2023-05-08T04:25:19;102257.81;;;9.34;80.36
73267;BME280;61495;53.400;7.608;2023-05-08T04:27:45;102260.63;;;9.32;80.03
73267;BME280;61495;53.400;7.608;2023-05-08T04:30:10;102255.97;;;9.26;79.88
73267;BME280;61495;53.400;7.608;2023-05-08T04:32:37;102263.66;;;9.29;79.75
73267;BME280;61495;53.400;7.608;2023-05-08T04:35:08;102268.31;;;9.27;80.45
73267;BME280;61495;53.400;7.608;2023-05-08T04:37:34;102256.44;;;9.22;81.23
73267;BME280;61495;53.400;7.608;2023-05-08T04:39:59;102261.31;;;9.26;80.49
73267;BME280;61495;53.400;7.608;2023-05-08T04:42:25;102262.13;;;9.27;81.59
73267;BME280;61495;53.400;7.608;2023-05-08T04:44:52;102268.50;;;9.26;80.00
73267;BME280;61495;53.400;7.608;2023-05-08T04:47:18;102253.25;;;9.18;81.49
73267;BME280;61495;53.400;7.608;2023-05-08T04:49:43;102274.00;;;9.24;80.46
73267;BME280;61495;53.400;7.608;2023-05-08T04:52:09;102262.28;;;9.17;81.48
73267;BME280;61495;53.400;7.608;2023-05-08T04:54:34;102270.66;;;9.22;81.44
73267;BME280;61495;53.400;7.608;2023-05-08T04:57:00;102268.44;;;9.18;81.43
73267;BME280;61495;53.400;7.608;2023-05-08T04:59:25;102268.81;;;9.23;80.93
73267;BME280;61495;53.400;7.608;2023-05-08T05:01:51;102269.66;;;9.31;80.78
73267;BME280;61495;53.400;7.608;2023-05-08T05:04:21;102280.22;;;9.41;81.63
73267;BME280;61495;53.400;7.608;2023-05-08T05:06:46;102278.88;;;9.45;82.10
73267;BME280;61495;53.400;7.608;2023-05-08T05:09:12;102274.25;;;9.63;81.42
73267;BME280;61495;53.400;7.608;2023-05-08T05:11:37;102278.94;;;9.69;81.03
73267;BME280;61495;53.400;7.608;2023-05-08T05:14:02;102282.81;;;9.91;81.22
73267;BME280;61495;53.400;7.608;2023-05-08T05:16:28;102282.78;;;10.07;80.76
73267;BME280;61495;53.400;7.608;2023-05-08T05:18:53;102263.06;;;10.24;80.34
73267;BME280;61495;53.400;7.608;2023-05-08T05:21:19;102266.41;;;10.34;79.85
73267;BME280;61495;53.400;7.608;2023-05-08T05:23:44;102275.03;;;10.60;78.76
73267;BME280;61495;53.400;7.608;2023-05-08T05:26:10;102284.72;;;10.70;78.92
73267;BME280;61495;53.400;7.608;2023-05-08T05:28:36;102276.50;;;10.79;78.46
73267;BME280;61495;53.400;7.608;2023-05-08T05:31:01;102272.59;;;10.98;77.56
73267;BME280;61495;53.400;7.608;2023-05-08T05:33:27;102267.31;;;11.12;77.41
73267;BME280;61495;53.400;7.608;2023-05-08T05:35:52;102281.13;;;11.32;76.94
73267;BME280;61495;53.400;7.608;2023-05-08T05:38:18;102268.75;;;11.54;76.02
73267;BME280;61495;53.400;7.608;2023-05-08T05:40:43;102270.53;;;11.61;75.68
73267;BME280;61495;53.400;7.608;2023-05-08T05:43:08;102281.84;;;11.80;74.93
73267;BME280;61495;53.400;7.608;2023-05-08T05:45:34;102269.38;;;11.87;74.91
73267;BME280;61495;53.400;7.608;2023-05-08T05:48:00;102262.75;;;11.75;74.36
73267;BME280;61495;53.400;7.608;2023-05-08T05:50:26;102271.06;;;11.88;73.97
73267;BME280;61495;53.400;7.608;2023-05-08T05:52:52;102256.28;;;11.61;74.55
73267;BME280;61495;53.400;7.608;2023-05-08T05:55:18;102271.25;;;11.55;74.24
73267;BME280;61495;53.400;7.608;2023-05-08T05:57:44;102224.22;;;11.14;75.13
73267;BME280;61495;53.400;7.608;2023-05-08T06:00:09;102265.44;;;11.44;74.71
73267;BME280;61495;53.400;7.608;2023-05-08T06:02:35;102269.22;;;11.57;74.94
73267;BME280;61495;53.400;7.608;2023-05-08T06:05:16;102262.75;;;11.75;74.80
73267;BME280;61495;53.400;7.608;2023-05-08T06:07:43;102263.50;;;12.06;74.11
73267;BME280;61495;53.400;7.608;2023-05-08T06:10:09;102263.50;;;12.06;73.57
73267;BME280;61495;53.400;7.608;2023-05-08T06:12:44;102268.19;;;12.26;72.88
73267;BME280;61495;53.400;7.608;2023-05-08T06:15:10;102266.91;;;12.37;72.53
73267;BME280;61495;53.400;7.608;2023-05-08T06:17:35;102263.59;;;12.50;72.29
73267;BME280;61495;53.400;7.608;2023-05-08T06:20:01;102263.50;;;12.58;72.22
73267;BME280;61495;53.400;7.608;2023-05-08T06:22:27;102266.94;;;12.66;71.35
73267;BME280;61495;53.400;7.608;2023-05-08T06:24:53;102269.97;;;12.63;71.26
73267;BME280;61495;53.400;7.608;2023-05-08T06:27:19;102270.09;;;12.85;71.15
73267;BME280;61495;53.400;7.608;2023-05-08T06:29:46;102261.91;;;12.93;70.55
73267;BME280;61495;53.400;7.608;2023-05-08T06:32:12;102265.06;;;13.11;69.85
73267;BME280;61495;53.400;7.608;2023-05-08T06:34:37;102257.53;;;13.21;70.14
73267;BME280;61495;53.400;7.608;2023-05-08T06:37:03;102267.97;;;13.30;69.70
73267;BME280;61495;53.400;7.608;2023-05-08T06:39:29;102256.41;;;13.51;69.68
73267;BME280;61495;53.400;7.608;2023-05-08T06:41:54;102268.09;;;13.58;68.40
73267;BME280;61495;53.400;7.608;2023-05-08T06:44:20;102259.88;;;13.66;68.39
73267;BME280;61495;53.400;7.608;2023-05-08T06:46:45;102258.63;;;13.83;67.92
73267;BME280;61495;53.400;7.608;2023-05-08T06:49:11;102261.88;;;14.00;68.30
73267;BME280;61495;53.400;7.608;2023-05-08T06:51:36;102263.19;;;14.11;67.01
73267;BME280;61495;53.400;7.608;2023-05-08T06:54:02;102257.28;;;14.22;67.47
73267;BME280;61495;53.400;7.608;2023-05-08T06:56:32;102257.91;;;14.24;67.14
73267;BME280;61495;53.400;7.608;2023-05-08T06:58:57;102257.13;;;14.30;66.68
73267;BME280;61495;53.400;7.608;2023-05-08T07:01:22;102262.50;;;14.51;66.59
73267;BME280;61495;53.400;7.608;2023-05-08T07:03:48;102267.78;;;14.66;66.14
73267;BME280;61495;53.400;7.608;2023-05-08T07:06:13;102265.34;;;14.77;65.60
73267;BME280;61495;53.400;7.608;2023-05-08T07:08:38;102261.06;;;14.89;65.71
73267;BME280;61495;53.400;7.608;2023-05-08T07:11:04;102267.34;;;15.03;64.88
73267;BME280;61495;53.400;7.608;2023-05-08T07:13:29;102260.06;;;15.03;64.43
73267;BME280;61495;53.400;7.608;2023-05-08T07:15:55;102257.19;;;15.12;65.07
73267;BME280;61495;53.400;7.608;2023-05-08T07:18:20;102250.00;;;15.32;64.01
73267;BME280;61495;53.400;7.608;2023-05-08T07:20:45;102253.19;;;15.48;63.42
73267;BME280;61495;53.400;7.608;2023-05-08T07:23:11;102252.00;;;15.64;63.46
73267;BME280;61495;53.400;7.608;2023-05-08T07:25:36;102256.16;;;15.80;63.48
73267;BME280;61495;53.400;7.608;2023-05-08T07:28:02;102261.13;;;15.83;63.08
73267;BME280;61495;53.400;7.608;2023-05-08T07:30:27;102257.41;;;15.90;62.67
73267;BME280;61495;53.400;7.608;2023-05-08T07:32:52;102247.84;;;16.07;62.93
73267;BME280;61495;53.400;7.608;2023-05-08T07:35:18;102247.41;;;16.37;63.77
73267;BME280;61495;53.400;7.608;2023-05-08T07:37:43;102256.75;;;16.54;61.79
73267;BME280;61495;53.400;7.608;2023-05-08T07:40:09;102256.16;;;16.39;61.63
73267;BME280;61495;53.400;7.608;2023-05-08T07:42:39;102261.16;;;16.55;62.84
73267;BME280;61495;53.400;7.608;2023-05-08T07:45:06;102254.25;;;16.39;61.45
73267;BME280;61495;53.400;7.608;2023-05-08T07:47:31;102257.34;;;16.82;61.36
73267;BME280;61495;53.400;7.608;2023-05-08T07:49:57;102251.25;;;16.93;60.27
73267;BME280;61495;53.400;7.608;2023-05-08T07:52:22;102244.66;;;17.27;61.13
73267;BME280;61495;53.400;7.608;2023-05-08T07:54:47;102250.91;;;17.28;60.09
73267;BME280;61495;53.400;7.608;2023-05-08T07:57:13;102242.28;;;16.99;60.45
73267;BME280;61495;53.400;7.608;2023-05-08T07:59:38;102245.63;;;16.95;61.01
73267;BME280;61495;53.400;7.608;2023-05-08T08:02:03;102257.06;;;16.97;60.23
73267;BME280;61495;53.400;7.608;2023-05-08T08:04:29;102254.31;;;17.10;60.67
73267;BME280;61495;53.400;7.608;2023-05-08T08:06:54;102253.13;;;16.93;59.58
73267;BME280;61495;53.400;7.608;2023-05-08T08:09:19;102261.78;;;17.14;60.83
73267;BME280;61495;53.400;7.608;2023-05-08T08:11:45;102249.41;;;16.87;60.79
73267;BME280;61495;53.400;7.608;2023-05-08T08:14:10;102239.81;;;16.91;61.34
73267;BME280;61495;53.400;7.608;2023-05-08T08:16:35;102248.50;;;17.06;60.77
73267;BME280;61495;53.400;7.608;2023-05-08T08:19:01;102244.84;;;16.81;60.57
73267;BME280;61495;53.400;7.608;2023-05-08T08:21:26;102243.50;;;17.03;60.15
73267;BME280;61495;53.400;7.608;2023-05-08T08:23:52;102244.69;;;17.14;60.49
73267;BME280;61495;53.400;7.608;2023-05-08T08:26:18;102232.72;;;17.35;61.14
73267;BME280;61495;53.400;7.608;2023-05-08T08:28:43;102234.47;;;17.60;61.08
73267;BME280;61495;53.400;7.608;2023-05-08T08:31:08;102240.00;;;17.34;60.17
73267;BME280;61495;53.400;7.608;2023-05-08T08:33:33;102233.66;;;17.53;60.09
73267;BME280;61495;53.400;7.608;2023-05-08T08:35:59;102228.22;;;17.60;59.75
73267;BME280;61495;53.400;7.608;2023-05-08T08:38:24;102227.69;;;17.76;59.50
73267;BME280;61495;53.400;7.608;2023-05-08T08:40:50;102226.78;;;17.82;60.31
73267;BME280;61495;53.400;7.608;2023-05-08T08:43:17;102229.31;;;17.84;59.44
73267;BME280;61495;53.400;7.608;2023-05-08T08:45:42;102221.44;;;18.00;59.54
73267;BME280;61495;53.400;7.608;2023-05-08T08:48:09;102211.50;;;18.37;59.68
73267;BME280;61495;53.400;7.608;2023-05-08T08:50:41;102214.25;;;18.30;58.79
73267;BME280;61495;53.400;7.608;2023-05-08T08:53:20;102214.66;;;18.09;56.94
73267;BME280;61495;53.400;7.608;2023-05-08T08:55:48;102213.91;;;18.02;57.23
73267;BME280;61495;53.400;7.608;2023-05-08T09:00:50;102208.03;;;18.48;57.14
73267;BME280;61495;53.400;7.608;2023-05-08T09:03:18;102211.09;;;18.58;58.35
73267;BME280;61495;53.400;7.608;2023-05-08T09:05:44;102213.28;;;18.50;57.59
73267;BME280;61495;53.400;7.608;2023-05-08T09:08:11;102213.19;;;18.56;57.77
73267;BME280;61495;53.400;7.608;2023-05-08T09:10:36;102213.88;;;18.70;56.83
73267;BME280;61495;53.400;7.608;2023-05-08T09:13:02;102211.53;;;18.73;57.60
73267;BME280;61495;53.400;7.608;2023-05-08T09:15:30;102212.06;;;18.64;56.92
73267;BME280;61495;53.400;7.608;2023-05-08T09:17:56;102230.38;;;18.86;56.78
73267;BME280;61495;53.400;7.608;2023-05-08T09:20:21;102220.19;;;19.00;56.44
73267;BME280;61495;53.400;7.608;2023-05-08T09:22:47;102218.97;;;18.96;56.38
73267;BME280;61495;53.400;7.608;2023-05-08T09:25:13;102223.06;;;18.69;55.46
73267;BME280;61495;53.400;7.608;2023-05-08T09:27:38;102227.00;;;18.91;56.40
73267;BME280;61495;53.400;7.608;2023-05-08T09:30:09;102225.31;;;19.08;56.32
73267;BME280;61495;53.400;7.608;2023-05-08T09:32:37;102226.22;;;18.84;55.51
73267;BME280;61495;53.400;7.608;2023-05-08T09:35:04;102234.38;;;19.02;56.10
73267;BME280;61495;53.400;7.608;2023-05-08T09:37:30;102229.03;;;19.25;56.09
73267;BME280;61495;53.400;7.608;2023-05-08T09:40:20;102224.72;;;19.06;55.04
73267;BME280;61495;53.400;7.608;2023-05-08T09:42:47;102232.22;;;19.22;55.21
73267;BME280;61495;53.400;7.608;2023-05-08T09:45:29;102224.09;;;19.52;54.92
73267;BME280;61495;53.400;7.608;2023-05-08T09:47:55;102224.72;;;19.36;55.10
73267;BME280;61495;53.400;7.608;2023-05-08T09:50:20;102230.75;;;19.68;55.87
73267;BME280;61495;53.400;7.608;2023-05-08T09:52:47;102220.00;;;19.73;55.49
73267;BME280;61495;53.400;7.608;2023-05-08T09:55:13;102218.50;;;19.88;55.00
73267;BME280;61495;53.400;7.608;2023-05-08T09:57:51;102211.06;;;20.07;55.24
73267;BME280;61495;53.400;7.608;2023-05-08T10:00:17;102212.63;;;20.26;55.44
73267;BME280;61495;53.400;7.608;2023-05-08T10:02:59;102216.03;;;20.10;55.09
73267;BME280;61495;53.400;7.608;2023-05-08T10:05:30;102220.50;;;20.05;54.73
73267;BME280;61495;53.400;7.608;2023-05-08T10:08:22;102217.56;;;20.18;54.94
73267;BME280;61495;53.400;7.608;2023-05-08T10:10:48;102215.56;;;20.13;54.72
73267;BME280;61495;53.400;7.608;2023-05-08T10:13:14;102206.66;;;19.94;53.61
73267;BME280;61495;53.400;7.608;2023-05-08T10:15:43;102215.56;;;20.13;54.87
73267;BME280;61495;53.400;7.608;2023-05-08T10:18:09;102209.13;;;19.84;53.80
73267;BME280;61495;53.400;7.608;2023-05-08T10:20:40;102210.81;;;19.97;53.83
73267;BME280;61495;53.400;7.608;2023-05-08T10:23:07;102212.13;;;20.06;54.89
73267;BME280;61495;53.400;7.608;2023-05-08T10:25:49;102213.41;;;19.92;54.10
73267;BME280;61495;53.400;7.608;2023-05-08T10:28:23;102205.63;;;20.07;54.92
73267;BME280;61495;53.400;7.608;2023-05-08T10:30:55;102200.19;;;20.07;54.06
73267;BME280;61495;53.400;7.608;2023-05-08T10:33:24;102194.94;;;20.17;53.77
73267;BME280;61495;53.400;7.608;2023-05-08T10:35:53;102203.13;;;20.06;53.93
73267;BME280;61495;53.400;7.608;2023-05-08T10:38:19;102196.84;;;20.05;53.83
73267;BME280;61495;53.400;7.608;2023-05-08T10:40:45;102201.59;;;19.98;53.76
73267;BME280;61495;53.400;7.608;2023-05-08T10:43:12;102204.63;;;19.90;54.19
73267;BME280;61495;53.400;7.608;2023-05-08T10:45:38;102205.59;;;19.95;54.39
73267;BME280;61495;53.400;7.608;2023-05-08T10:48:15;102196.38;;;20.08;54.50
73267;BME280;61495;53.400;7.608;2023-05-08T10:53:52;102184.06;;;20.17;54.81
73267;BME280;61495;53.400;7.608;2023-05-08T10:56:26;102181.59;;;20.04;54.06
73267;BME280;61495;53.400;7.608;2023-05-08T10:58:55;102186.44;;;20.02;52.52
73267;BME280;61495;53.400;7.608;2023-05-08T11:01:22;102183.38;;;20.22;54.46
73267;BME280;61495;53.400;7.608;2023-05-08T11:03:48;102180.06;;;20.31;55.14
73267;BME280;61495;53.400;7.608;2023-05-08T11:06:40;102176.75;;;20.29;55.11
73267;BME280;61495;53.400;7.608;2023-05-08T11:09:02;102173.53;;;20.44;55.83
73267;BME280;61495;53.400;7.608;2023-05-08T11:11:31;102176.63;;;20.36;55.01
73267;BME280;61495;53.400;7.608;2023-05-08T11:14:10;102175.81;;;20.35;54.46
73267;BME280;61495;53.400;7.608;2023-05-08T11:19:26;102164.50;;;20.67;55.72
73267;BME280;61495;53.400;7.608;2023-05-08T11:22:27;102165.56;;;20.66;54.04
73267;BME280;61495;53.400;7.608;2023-05-08T11:25:03;102162.88;;;20.54;54.58
73267;BME280;61495;53.400;7.608;2023-05-08T11:32:57;102160.72;;;20.96;54.19
73267;BME280;61495;53.400;7.608;2023-05-08T11:35:46;102152.50;;;21.08;54.61
73267;BME280;61495;53.400;7.608;2023-05-08T11:40:48;102157.13;;;21.07;55.40
73267;BME280;61495;53.400;7.608;2023-05-08T11:46:01;102152.56;;;20.96;53.93
73267;BME280;61495;53.400;7.608;2023-05-08T11:48:28;102150.00;;;21.06;54.01
73267;BME280;61495;53.400;7.608;2023-05-08T11:50:54;102149.00;;;20.95;55.02
73267;BME280;61495;53.400;7.608;2023-05-08T11:53:19;102154.63;;;21.17;55.21
73267;BME280;61495;53.400;7.608;2023-05-08T11:55:48;102152.88;;;21.11;54.76
73267;BME280;61495;53.400;7.608;2023-05-08T11:58:15;102151.97;;;21.22;54.07
73267;BME280;61495;53.400;7.608;2023-05-08T12:00:41;102139.19;;;21.39;54.95
73267;BME280;61495;53.400;7.608;2023-05-08T12:03:21;102147.28;;;21.34;54.57
73267;BME280;61495;53.400;7.608;2023-05-08T12:05:48;102146.13;;;21.47;54.58
73267;BME280;61495;53.400;7.608;2023-05-08T12:08:15;102145.13;;;21.53;54.24
73267;BME280;61495;53.400;7.608;2023-05-08T12:10:55;102140.69;;;21.64;54.55
73267;BME280;61495;53.400;7.608;2023-05-08T12:13:25;102148.69;;;21.87;55.56
73267;BME280;61495;53.400;7.608;2023-05-08T12:15:59;102142.59;;;21.96;55.57
73267;BME280;61495;53.400;7.608;2023-05-08T12:18:26;102148.13;;;22.01;55.80
73267;BME280;61495;53.400;7.608;2023-05-08T12:20:57;102143.00;;;21.72;54.17
73267;BME280;61495;53.400;7.608;2023-05-08T12:23:27;102147.81;;;21.65;54.29
73267;BME280;61495;53.400;7.608;2023-05-08T12:25:59;102151.41;;;21.53;53.43
73267;BME280;61495;53.400;7.608;2023-05-08T12:28:25;102143.97;;;21.32;53.17
73267;BME280;61495;53.400;7.608;2023-05-08T12:30:51;102145.13;;;21.53;54.27
73267;BME280;61495;53.400;7.608;2023-05-08T12:33:17;102144.88;;;21.71;53.43
73267;BME280;61495;53.400;7.608;2023-05-08T12:35:43;102139.69;;;21.70;53.17
73267;BME280;61495;53.400;7.608;2023-05-08T12:38:08;102136.72;;;21.54;53.53
73267;BME280;61495;53.400;7.608;2023-05-08T12:40:44;102130.41;;;21.71;53.53
73267;BME280;61495;53.400;7.608;2023-05-08T12:43:10;102130.91;;;21.51;53.58
73267;BME280;61495;53.400;7.608;2023-05-08T12:45:40;102136.66;;;21.49;53.84
73267;BME280;61495;53.400;7.608;2023-05-08T12:48:11;102138.34;;;21.39;54.54
73267;BME280;61495;53.400;7.608;2023-05-08T12:50:42;102126.28;;;21.68;53.88
73267;BME280;61495;53.400;7.608;2023-05-08T12:53:09;102135.53;;;21.84;55.05
73267;BME280;61495;53.400;7.608;2023-05-08T12:55:37;102131.25;;;21.71;54.37
73267;BME280;61495;53.400;7.608;2023-05-08T12:58:06;102128.06;;;21.91;55.33
73267;BME280;61495;53.400;7.608;2023-05-08T13:00:45;102121.16;;;22.05;55.11
73267;BME280;61495;53.400;7.608;2023-05-08T13:03:21;102117.00;;;21.86;53.68
73267;BME280;61495;53.400;7.608;2023-05-08T13:05:47;102121.00;;;21.95;55.00
73267;BME280;61495;53.400;7.608;2023-05-08T13:08:12;102106.59;;;21.99;55.44
73267;BME280;61495;53.400;7.608;2023-05-08T13:13:15;102102.97;;;21.77;53.79
73267;BME280;61495;53.400;7.608;2023-05-08T13:15:41;102113.53;;;21.74;55.08
73267;BME280;61495;53.400;7.608;2023-05-08T13:18:07;102111.53;;;21.86;56.09
73267;BME280;61495;53.400;7.608;2023-05-08T13:20:35;102109.00;;;21.96;54.71
73267;BME280;61495;53.400;7.608;2023-05-08T13:23:01;102104.63;;;21.78;53.98
73267;BME280;61495;53.400;7.608;2023-05-08T13:25:27;102108.44;;;21.94;55.30
73267;BME280;61495;53.400;7.608;2023-05-08T13:27:55;102106.56;;;22.16;55.64
73267;BME280;61495;53.400;7.608;2023-05-08T13:30:20;102105.34;;;22.29;56.53
73267;BME280;61495;53.400;7.608;2023-05-08T13:32:49;102102.09;;;22.10;53.43
73267;BME280;61495;53.400;7.608;2023-05-08T13:35:15;102103.50;;;22.34;55.62
73267;BME280;61495;53.400;7.608;2023-05-08T13:37:40;102105.28;;;22.45;55.17